sensor_id;sensor_type;location;lat;lon;timestamp;P1;durP1;ratioP1;P2;durP2;ratioP2
76296;SDS011;65104;52.994;6.552;2023-09-18T00:00:16;18.00;;;10.27;;
76296;SDS011;65104;52.994;6.552;2023-09-18T00:02:42;17.08;;;10.13;;
76296;SDS011;65104;52.994;6.552;2023-09-18T00:05:08;16.25;;;10.45;;
76296;SDS011;65104;52.994;6.552;2023-09-18T00:07:33;16.80;;;9.88;;
76296;SDS011;65104;52.994;6.552;2023-09-18T00:09:59;16.52;;;11.45;;
76296;SDS011;65104;52.994;6.552;2023-09-18T00:12:24;15.23;;;10.00;;
76296;SDS011;65104;52.994;6.552;2023-09-18T00:14:49;18.23;;;11.57;;
76296;SDS011;65104;52.994;6.552;2023-09-18T00:17:15;16.75;;;9.90;;
76296;SDS011;65104;52.994;6.552;2023-09-18T00:19:42;16.70;;;10.63;;
76296;SDS011;65104;52.994;6.552;2023-09-18T00:22:07;16.73;;;10.40;;
76296;SDS011;65104;52.994;6.552;2023-09-18T00:24:33;19.10;;;10.90;;
76296;SDS011;65104;52.994;6.552;2023-09-18T00:26:59;16.63;;;11.05;;
76296;SDS011;65104;52.994;6.552;2023-09-18T00:29:24;18.85;;;10.00;;
76296;SDS011;65104;52.994;6.552;2023-09-18T00:31:49;17.10;;;10.70;;
76296;SDS011;65104;52.994;6.552;2023-09-18T00:34:15;16.98;;;10.88;;
76296;SDS011;65104;52.994;6.552;2023-09-18T00:36:40;17.20;;;10.95;;
76296;SDS011;65104;52.994;6.552;2023-09-18T00:39:06;18.58;;;11.75;;
76296;SDS011;65104;52.994;6.552;2023-09-18T00:41:31;16.20;;;10.13;;
76296;SDS011;65104;52.994;6.552;2023-09-18T00:43:57;18.35;;;10.88;;
76296;SDS011;65104;52.994;6.552;2023-09-18T00:46:22;17.17;;;10.68;;
76296;SDS011;65104;52.994;6.552;2023-09-18T00:48:48;16.88;;;11.02;;
76296;SDS011;65104;52.994;6.552;2023-09-18T00:51:15;17.45;;;11.75;;
76296;SDS011;65104;52.994;6.552;2023-09-18T00:53:45;19.48;;;11.80;;
76296;SDS011;65104;52.994;6.552;2023-09-18T00:56:13;20.45;;;11.75;;
76296;SDS011;65104;52.994;6.552;2023-09-18T00:58:40;18.70;;;11.63;;
76296;SDS011;65104;52.994;6.552;2023-09-18T01:01:05;21.55;;;12.02;;
76296;SDS011;65104;52.994;6.552;2023-09-18T01:03:30;18.80;;;10.57;;
76296;SDS011;65104;52.994;6.552;2023-09-18T01:05:56;16.55;;;10.50;;
76296;SDS011;65104;52.994;6.552;2023-09-18T01:08:22;18.60;;;10.75;;
76296;SDS011;65104;52.994;6.552;2023-09-18T01:13:54;16.90;;;10.95;;
76296;SDS011;65104;52.994;6.552;2023-09-18T01:16:30;14.52;;;9.93;;
76296;SDS011;65104;52.994;6.552;2023-09-18T01:18:59;15.45;;;9.80;;
76296;SDS011;65104;52.994;6.552;2023-09-18T01:21:27;14.93;;;9.85;;
76296;SDS011;65104;52.994;6.552;2023-09-18T01:23:53;16.75;;;10.80;;
76296;SDS011;65104;52.994;6.552;2023-09-18T01:26:18;16.92;;;10.30;;
76296;SDS011;65104;52.994;6.552;2023-09-18T01:28:44;14.35;;;10.23;;
76296;SDS011;65104;52.994;6.552;2023-09-18T01:31:09;13.75;;;9.75;;
76296;SDS011;65104;52.994;6.552;2023-09-18T01:33:34;15.25;;;10.32;;
76296;SDS011;65104;52.994;6.552;2023-09-18T01:38:28;14.18;;;9.50;;
76296;SDS011;65104;52.994;6.552;2023-09-18T01:40:53;18.00;;;10.50;;
76296;SDS011;65104;52.994;6.552;2023-09-18T01:43:19;17.52;;;11.48;;
76296;SDS011;65104;52.994;6.552;2023-09-18T01:45:45;18.10;;;12.10;;
76296;SDS011;65104;52.994;6.552;2023-09-18T01:48:11;17.30;;;12.15;;
76296;SDS011;65104;52.994;6.552;2023-09-18T01:50:37;20.20;;;11.93;;
76296;SDS011;65104;52.994;6.552;2023-09-18T01:53:05;18.02;;;11.95;;
76296;SDS011;65104;52.994;6.552;2023-09-18T01:55:30;18.38;;;12.20;;
76296;SDS011;65104;52.994;6.552;2023-09-18T01:57:57;20.52;;;12.93;;
76296;SDS011;65104;52.994;6.552;2023-09-18T02:00:23;20.52;;;12.80;;
76296;SDS011;65104;52.994;6.552;2023-09-18T02:02:48;19.63;;;12.10;;
76296;SDS011;65104;52.994;6.552;2023-09-18T02:05:14;20.52;;;13.45;;
76296;SDS011;65104;52.994;6.552;2023-09-18T02:07:39;21.50;;;12.85;;
76296;SDS011;65104;52.994;6.552;2023-09-18T02:10:05;19.88;;;12.63;;
76296;SDS011;65104;52.994;6.552;2023-09-18T02:12:30;18.83;;;12.77;;
76296;SDS011;65104;52.994;6.552;2023-09-18T02:14:56;21.40;;;12.70;;
76296;SDS011;65104;52.994;6.552;2023-09-18T02:17:23;16.23;;;11.75;;
76296;SDS011;65104;52.994;6.552;2023-09-18T02:19:48;20.35;;;13.55;;
76296;SDS011;65104;52.994;6.552;2023-09-18T02:22:14;17.05;;;11.70;;
76296;SDS011;65104;52.994;6.552;2023-09-18T02:24:39;19.92;;;13.20;;
76296;SDS011;65104;52.994;6.552;2023-09-18T02:27:05;20.05;;;13.13;;
76296;SDS011;65104;52.994;6.552;2023-09-18T02:29:31;21.58;;;13.20;;
76296;SDS011;65104;52.994;6.552;2023-09-18T02:31:56;19.42;;;12.80;;
76296;SDS011;65104;52.994;6.552;2023-09-18T02:34:22;19.90;;;13.45;;
76296;SDS011;65104;52.994;6.552;2023-09-18T02:36:47;22.02;;;13.38;;
76296;SDS011;65104;52.994;6.552;2023-09-18T02:39:12;17.73;;;12.10;;
76296;SDS011;65104;52.994;6.552;2023-09-18T02:41:38;19.27;;;12.10;;
76296;SDS011;65104;52.994;6.552;2023-09-18T02:44:03;18.42;;;12.80;;
76296;SDS011;65104;52.994;6.552;2023-09-18T02:46:29;22.55;;;13.77;;
76296;SDS011;65104;52.994;6.552;2023-09-18T02:48:55;20.73;;;12.55;;
76296;SDS011;65104;52.994;6.552;2023-09-18T02:51:20;19.00;;;12.32;;
76296;SDS011;65104;52.994;6.552;2023-09-18T02:53:45;15.35;;;11.05;;
76296;SDS011;65104;52.994;6.552;2023-09-18T02:56:11;17.63;;;12.15;;
76296;SDS011;65104;52.994;6.552;2023-09-18T02:58:36;18.42;;;11.82;;
76296;SDS011;65104;52.994;6.552;2023-09-18T03:01:01;19.25;;;11.90;;
76296;SDS011;65104;52.994;6.552;2023-09-18T03:03:29;17.85;;;12.05;;
76296;SDS011;65104;52.994;6.552;2023-09-18T03:05:59;16.40;;;11.18;;
76296;SDS011;65104;52.994;6.552;2023-09-18T03:08:28;18.48;;;11.45;;
76296;SDS011;65104;52.994;6.552;2023-09-18T03:10:54;17.80;;;11.70;;
76296;SDS011;65104;52.994;6.552;2023-09-18T03:13:19;19.73;;;12.68;;
76296;SDS011;65104;52.994;6.552;2023-09-18T03:15:45;18.38;;;11.82;;
76296;SDS011;65104;52.994;6.552;2023-09-18T03:18:13;18.85;;;11.65;;
76296;SDS011;65104;52.994;6.552;2023-09-18T03:20:39;17.42;;;11.85;;
76296;SDS011;65104;52.994;6.552;2023-09-18T03:23:04;14.20;;;10.20;;
76296;SDS011;65104;52.994;6.552;2023-09-18T03:25:30;15.52;;;10.30;;
76296;SDS011;65104;52.994;6.552;2023-09-18T03:27:56;18.05;;;11.30;;
76296;SDS011;65104;52.994;6.552;2023-09-18T03:30:23;17.63;;;11.10;;
76296;SDS011;65104;52.994;6.552;2023-09-18T03:32:49;15.05;;;11.38;;
76296;SDS011;65104;52.994;6.552;2023-09-18T03:35:15;14.38;;;9.93;;
76296;SDS011;65104;52.994;6.552;2023-09-18T03:37:53;16.60;;;11.30;;
76296;SDS011;65104;52.994;6.552;2023-09-18T03:40:21;15.20;;;9.85;;
76296;SDS011;65104;52.994;6.552;2023-09-18T03:42:47;15.20;;;10.95;;
76296;SDS011;65104;52.994;6.552;2023-09-18T03:45:13;14.23;;;9.90;;
76296;SDS011;65104;52.994;6.552;2023-09-18T03:47:40;14.45;;;10.38;;
76296;SDS011;65104;52.994;6.552;2023-09-18T03:50:09;16.17;;;10.90;;
76296;SDS011;65104;52.994;6.552;2023-09-18T03:52:36;14.60;;;9.15;;
76296;SDS011;65104;52.994;6.552;2023-09-18T03:55:02;13.43;;;9.40;;
76296;SDS011;65104;52.994;6.552;2023-09-18T03:57:27;15.13;;;10.23;;
76296;SDS011;65104;52.994;6.552;2023-09-18T03:59:53;12.60;;;8.73;;
76296;SDS011;65104;52.994;6.552;2023-09-18T04:02:18;14.90;;;10.02;;
76296;SDS011;65104;52.994;6.552;2023-09-18T04:04:44;15.02;;;9.95;;
76296;SDS011;65104;52.994;6.552;2023-09-18T04:07:09;13.23;;;9.25;;
76296;SDS011;65104;52.994;6.552;2023-09-18T04:09:35;14.43;;;9.23;;
76296;SDS011;65104;52.994;6.552;2023-09-18T04:12:01;15.38;;;9.43;;
76296;SDS011;65104;52.994;6.552;2023-09-18T04:14:27;15.30;;;9.32;;
76296;SDS011;65104;52.994;6.552;2023-09-18T04:16:52;15.38;;;9.35;;
76296;SDS011;65104;52.994;6.552;2023-09-18T04:19:17;13.25;;;8.13;;
76296;SDS011;65104;52.994;6.552;2023-09-18T04:21:43;15.13;;;9.65;;
76296;SDS011;65104;52.994;6.552;2023-09-18T04:24:08;12.70;;;8.52;;
76296;SDS011;65104;52.994;6.552;2023-09-18T04:26:33;11.32;;;8.07;;
76296;SDS011;65104;52.994;6.552;2023-09-18T04:28:59;13.13;;;8.13;;
76296;SDS011;65104;52.994;6.552;2023-09-18T04:31:26;13.40;;;8.55;;
76296;SDS011;65104;52.994;6.552;2023-09-18T04:33:52;11.25;;;8.02;;
76296;SDS011;65104;52.994;6.552;2023-09-18T04:36:18;12.23;;;9.00;;
76296;SDS011;65104;52.994;6.552;2023-09-18T04:38:44;10.60;;;7.65;;
76296;SDS011;65104;52.994;6.552;2023-09-18T04:41:09;12.63;;;8.25;;
76296;SDS011;65104;52.994;6.552;2023-09-18T04:43:36;11.93;;;7.53;;
76296;SDS011;65104;52.994;6.552;2023-09-18T04:48:30;11.23;;;7.65;;
76296;SDS011;65104;52.994;6.552;2023-09-18T04:50:56;12.60;;;8.93;;
76296;SDS011;65104;52.994;6.552;2023-09-18T04:53:21;12.38;;;8.07;;
76296;SDS011;65104;52.994;6.552;2023-09-18T04:55:47;10.55;;;7.45;;
76296;SDS011;65104;52.994;6.552;2023-09-18T04:58:14;12.00;;;8.52;;
76296;SDS011;65104;52.994;6.552;2023-09-18T05:00:40;13.07;;;8.65;;
76296;SDS011;65104;52.994;6.552;2023-09-18T05:03:06;11.98;;;8.18;;
76296;SDS011;65104;52.994;6.552;2023-09-18T05:05:33;13.70;;;7.68;;
76296;SDS011;65104;52.994;6.552;2023-09-18T05:08:00;11.77;;;7.40;;
76296;SDS011;65104;52.994;6.552;2023-09-18T05:10:28;11.25;;;8.48;;
76296;SDS011;65104;52.994;6.552;2023-09-18T05:12:53;12.27;;;7.63;;
76296;SDS011;65104;52.994;6.552;2023-09-18T05:15:23;11.90;;;7.47;;
76296;SDS011;65104;52.994;6.552;2023-09-18T05:17:54;11.45;;;8.60;;
76296;SDS011;65104;52.994;6.552;2023-09-18T05:20:22;9.90;;;6.65;;
76296;SDS011;65104;52.994;6.552;2023-09-18T05:22:49;11.93;;;7.78;;
76296;SDS011;65104;52.994;6.552;2023-09-18T05:25:15;11.20;;;7.45;;
76296;SDS011;65104;52.994;6.552;2023-09-18T05:27:41;10.77;;;7.45;;
76296;SDS011;65104;52.994;6.552;2023-09-18T05:30:10;10.25;;;7.25;;
76296;SDS011;65104;52.994;6.552;2023-09-18T05:32:36;10.02;;;6.95;;
76296;SDS011;65104;52.994;6.552;2023-09-18T05:35:01;10.68;;;6.65;;
76296;SDS011;65104;52.994;6.552;2023-09-18T05:37:31;15.27;;;7.53;;
76296;SDS011;65104;52.994;6.552;2023-09-18T05:39:56;10.88;;;7.13;;
76296;SDS011;65104;52.994;6.552;2023-09-18T05:42:22;9.60;;;6.20;;
76296;SDS011;65104;52.994;6.552;2023-09-18T05:44:47;12.13;;;7.57;;
76296;SDS011;65104;52.994;6.552;2023-09-18T05:47:12;8.65;;;7.10;;
76296;SDS011;65104;52.994;6.552;2023-09-18T05:49:38;10.40;;;6.82;;
76296;SDS011;65104;52.994;6.552;2023-09-18T05:52:03;9.45;;;6.72;;
76296;SDS011;65104;52.994;6.552;2023-09-18T05:54:29;9.02;;;6.80;;
76296;SDS011;65104;52.994;6.552;2023-09-18T05:56:54;10.90;;;7.03;;
76296;SDS011;65104;52.994;6.552;2023-09-18T05:59:19;9.65;;;6.32;;
76296;SDS011;65104;52.994;6.552;2023-09-18T06:01:45;10.32;;;6.47;;
76296;SDS011;65104;52.994;6.552;2023-09-18T06:04:10;10.52;;;6.32;;
76296;SDS011;65104;52.994;6.552;2023-09-18T06:09:03;7.63;;;5.30;;
76296;SDS011;65104;52.994;6.552;2023-09-18T06:11:28;9.00;;;6.13;;
76296;SDS011;65104;52.994;6.552;2023-09-18T06:13:54;10.98;;;5.75;;
76296;SDS011;65104;52.994;6.552;2023-09-18T06:16:19;10.00;;;5.28;;
76296;SDS011;65104;52.994;6.552;2023-09-18T06:18:44;7.57;;;5.72;;
76296;SDS011;65104;52.994;6.552;2023-09-18T06:21:10;9.23;;;6.25;;
76296;SDS011;65104;52.994;6.552;2023-09-18T06:23:35;9.75;;;5.88;;
76296;SDS011;65104;52.994;6.552;2023-09-18T06:26:01;10.15;;;5.57;;
76296;SDS011;65104;52.994;6.552;2023-09-18T06:28:26;12.65;;;6.20;;
76296;SDS011;65104;52.994;6.552;2023-09-18T06:30:52;7.97;;;5.05;;
76296;SDS011;65104;52.994;6.552;2023-09-18T06:33:19;9.55;;;6.25;;
76296;SDS011;65104;52.994;6.552;2023-09-18T06:35:44;9.73;;;6.15;;
76296;SDS011;65104;52.994;6.552;2023-09-18T06:38:09;9.88;;;6.05;;
76296;SDS011;65104;52.994;6.552;2023-09-18T06:40:37;9.63;;;6.18;;
76296;SDS011;65104;52.994;6.552;2023-09-18T06:43:04;12.30;;;6.65;;
76296;SDS011;65104;52.994;6.552;2023-09-18T06:45:29;10.65;;;6.97;;
76296;SDS011;65104;52.994;6.552;2023-09-18T06:47:55;11.38;;;7.03;;
76296;SDS011;65104;52.994;6.552;2023-09-18T06:50:20;9.77;;;6.53;;
76296;SDS011;65104;52.994;6.552;2023-09-18T06:52:46;9.82;;;6.13;;
76296;SDS011;65104;52.994;6.552;2023-09-18T06:55:11;9.93;;;6.03;;
76296;SDS011;65104;52.994;6.552;2023-09-18T06:57:37;10.73;;;6.68;;
76296;SDS011;65104;52.994;6.552;2023-09-18T07:00:02;9.48;;;6.93;;
76296;SDS011;65104;52.994;6.552;2023-09-18T07:02:29;10.02;;;6.60;;
76296;SDS011;65104;52.994;6.552;2023-09-18T07:04:55;9.73;;;6.40;;
76296;SDS011;65104;52.994;6.552;2023-09-18T07:07:21;16.55;;;7.63;;
76296;SDS011;65104;52.994;6.552;2023-09-18T07:09:50;14.13;;;7.97;;
76296;SDS011;65104;52.994;6.552;2023-09-18T07:12:18;13.30;;;7.95;;
76296;SDS011;65104;52.994;6.552;2023-09-18T07:14:44;16.08;;;9.15;;
76296;SDS011;65104;52.994;6.552;2023-09-18T07:17:10;15.50;;;8.90;;
76296;SDS011;65104;52.994;6.552;2023-09-18T07:19:36;15.38;;;9.50;;
76296;SDS011;65104;52.994;6.552;2023-09-18T07:22:01;15.05;;;8.07;;
76296;SDS011;65104;52.994;6.552;2023-09-18T07:24:27;13.90;;;8.65;;
76296;SDS011;65104;52.994;6.552;2023-09-18T07:26:52;13.70;;;8.77;;
76296;SDS011;65104;52.994;6.552;2023-09-18T07:29:18;14.43;;;8.98;;
76296;SDS011;65104;52.994;6.552;2023-09-18T07:31:43;14.05;;;7.88;;
76296;SDS011;65104;52.994;6.552;2023-09-18T07:34:10;11.70;;;8.05;;
76296;SDS011;65104;52.994;6.552;2023-09-18T07:36:36;14.38;;;8.30;;
76296;SDS011;65104;52.994;6.552;2023-09-18T07:39:01;11.50;;;7.82;;
76296;SDS011;65104;52.994;6.552;2023-09-18T07:41:29;11.93;;;8.20;;
76296;SDS011;65104;52.994;6.552;2023-09-18T07:43:54;11.98;;;7.57;;
76296;SDS011;65104;52.994;6.552;2023-09-18T07:46:22;12.77;;;7.88;;
76296;SDS011;65104;52.994;6.552;2023-09-18T07:48:47;9.80;;;7.53;;
76296;SDS011;65104;52.994;6.552;2023-09-18T07:51:13;21.83;;;7.53;;
76296;SDS011;65104;52.994;6.552;2023-09-18T07:53:39;11.77;;;6.93;;
76296;SDS011;65104;52.994;6.552;2023-09-18T07:56:04;13.23;;;6.95;;
76296;SDS011;65104;52.994;6.552;2023-09-18T07:58:30;10.77;;;7.15;;
76296;SDS011;65104;52.994;6.552;2023-09-18T08:00:58;11.50;;;7.63;;
76296;SDS011;65104;52.994;6.552;2023-09-18T08:03:24;11.05;;;7.47;;
76296;SDS011;65104;52.994;6.552;2023-09-18T08:05:50;12.32;;;7.93;;
76296;SDS011;65104;52.994;6.552;2023-09-18T08:10:42;9.45;;;6.78;;
76296;SDS011;65104;52.994;6.552;2023-09-18T08:13:08;10.63;;;7.35;;
76296;SDS011;65104;52.994;6.552;2023-09-18T08:15:34;10.02;;;6.80;;
76296;SDS011;65104;52.994;6.552;2023-09-18T08:17:59;12.75;;;7.40;;
76296;SDS011;65104;52.994;6.552;2023-09-18T08:20:25;11.63;;;7.78;;
76296;SDS011;65104;52.994;6.552;2023-09-18T08:22:51;12.57;;;8.27;;
76296;SDS011;65104;52.994;6.552;2023-09-18T08:25:16;13.13;;;7.38;;
76296;SDS011;65104;52.994;6.552;2023-09-18T08:27:42;12.70;;;8.18;;
76296;SDS011;65104;52.994;6.552;2023-09-18T08:30:09;13.35;;;8.77;;
76296;SDS011;65104;52.994;6.552;2023-09-18T08:32:36;12.75;;;7.95;;
76296;SDS011;65104;52.994;6.552;2023-09-18T08:35:02;16.25;;;7.60;;
76296;SDS011;65104;52.994;6.552;2023-09-18T08:37:28;13.13;;;8.32;;
76296;SDS011;65104;52.994;6.552;2023-09-18T08:39:54;12.30;;;8.45;;
76296;SDS011;65104;52.994;6.552;2023-09-18T08:42:20;12.48;;;7.95;;
76296;SDS011;65104;52.994;6.552;2023-09-18T08:44:48;12.40;;;8.30;;
76296;SDS011;65104;52.994;6.552;2023-09-18T08:47:16;13.15;;;7.88;;
76296;SDS011;65104;52.994;6.552;2023-09-18T08:49:43;11.95;;;7.68;;
76296;SDS011;65104;52.994;6.552;2023-09-18T08:52:11;12.13;;;7.60;;
76296;SDS011;65104;52.994;6.552;2023-09-18T08:54:39;13.20;;;8.02;;
76296;SDS011;65104;52.994;6.552;2023-09-18T08:57:05;13.77;;;8.68;;
76296;SDS011;65104;52.994;6.552;2023-09-18T08:59:33;11.45;;;7.60;;
76296;SDS011;65104;52.994;6.552;2023-09-18T09:02:00;12.15;;;8.02;;
76296;SDS011;65104;52.994;6.552;2023-09-18T09:04:26;13.07;;;7.85;;
76296;SDS011;65104;52.994;6.552;2023-09-18T09:06:51;13.50;;;8.70;;
76296;SDS011;65104;52.994;6.552;2023-09-18T09:09:17;12.52;;;8.15;;
76296;SDS011;65104;52.994;6.552;2023-09-18T09:11:50;11.57;;;7.30;;
76296;SDS011;65104;52.994;6.552;2023-09-18T09:14:16;10.73;;;8.32;;
76296;SDS011;65104;52.994;6.552;2023-09-18T09:16:53;13.05;;;8.20;;
76296;SDS011;65104;52.994;6.552;2023-09-18T09:19:40;13.00;;;8.35;;
76296;SDS011;65104;52.994;6.552;2023-09-18T09:22:07;14.07;;;7.65;;
76296;SDS011;65104;52.994;6.552;2023-09-18T09:24:43;13.80;;;9.55;;
76296;SDS011;65104;52.994;6.552;2023-09-18T09:27:09;13.00;;;8.05;;
76296;SDS011;65104;52.994;6.552;2023-09-18T09:29:35;14.88;;;8.88;;
76296;SDS011;65104;52.994;6.552;2023-09-18T09:32:14;12.02;;;8.15;;
76296;SDS011;65104;52.994;6.552;2023-09-18T09:34:42;15.10;;;9.45;;
76296;SDS011;65104;52.994;6.552;2023-09-18T09:37:08;14.63;;;9.95;;
76296;SDS011;65104;52.994;6.552;2023-09-18T09:39:34;13.25;;;8.23;;
76296;SDS011;65104;52.994;6.552;2023-09-18T09:42:00;15.88;;;9.60;;
76296;SDS011;65104;52.994;6.552;2023-09-18T09:44:28;15.65;;;9.68;;
76296;SDS011;65104;52.994;6.552;2023-09-18T09:46:56;14.07;;;10.07;;
76296;SDS011;65104;52.994;6.552;2023-09-18T09:49:24;14.05;;;8.95;;
76296;SDS011;65104;52.994;6.552;2023-09-18T09:51:52;15.15;;;10.45;;
76296;SDS011;65104;52.994;6.552;2023-09-18T09:54:31;14.55;;;8.98;;
76296;SDS011;65104;52.994;6.552;2023-09-18T09:56:59;18.52;;;10.35;;
76296;SDS011;65104;52.994;6.552;2023-09-18T09:59:28;13.70;;;9.25;;
76296;SDS011;65104;52.994;6.552;2023-09-18T10:01:54;16.77;;;10.38;;
76296;SDS011;65104;52.994;6.552;2023-09-18T10:04:21;18.38;;;10.88;;
76296;SDS011;65104;52.994;6.552;2023-09-18T10:06:51;14.38;;;9.88;;
76296;SDS011;65104;52.994;6.552;2023-09-18T10:09:21;15.50;;;9.48;;
76296;SDS011;65104;52.994;6.552;2023-09-18T10:14:18;17.38;;;10.23;;
76296;SDS011;65104;52.994;6.552;2023-09-18T10:16:46;13.02;;;8.82;;
76296;SDS011;65104;52.994;6.552;2023-09-18T10:22:42;15.73;;;8.50;;
76296;SDS011;65104;52.994;6.552;2023-09-18T10:27:46;14.90;;;8.02;;
76296;SDS011;65104;52.994;6.552;2023-09-18T10:30:19;9.40;;;6.90;;
76296;SDS011;65104;52.994;6.552;2023-09-18T10:32:47;10.85;;;7.30;;
76296;SDS011;65104;52.994;6.552;2023-09-18T10:35:14;10.63;;;7.57;;
76296;SDS011;65104;52.994;6.552;2023-09-18T10:37:44;7.88;;;6.22;;
76296;SDS011;65104;52.994;6.552;2023-09-18T10:40:11;11.02;;;7.22;;
76296;SDS011;65104;52.994;6.552;2023-09-18T10:42:38;10.80;;;6.75;;
76296;SDS011;65104;52.994;6.552;2023-09-18T10:45:05;9.63;;;6.65;;
76296;SDS011;65104;52.994;6.552;2023-09-18T10:47:35;8.68;;;6.03;;
76296;SDS011;65104;52.994;6.552;2023-09-18T10:50:03;8.32;;;5.95;;
76296;SDS011;65104;52.994;6.552;2023-09-18T10:52:29;6.93;;;5.13;;
76296;SDS011;65104;52.994;6.552;2023-09-18T10:54:55;6.78;;;4.95;;
76296;SDS011;65104;52.994;6.552;2023-09-18T10:57:21;6.28;;;4.90;;
76296;SDS011;65104;52.994;6.552;2023-09-18T10:59:46;6.85;;;5.45;;
76296;SDS011;65104;52.994;6.552;2023-09-18T11:02:15;6.15;;;4.93;;
76296;SDS011;65104;52.994;6.552;2023-09-18T11:04:42;4.90;;;4.10;;
76296;SDS011;65104;52.994;6.552;2023-09-18T11:07:09;4.95;;;4.45;;
76296;SDS011;65104;52.994;6.552;2023-09-18T11:09:44;6.47;;;4.93;;
76296;SDS011;65104;52.994;6.552;2023-09-18T11:12:10;6.07;;;4.70;;
76296;SDS011;65104;52.994;6.552;2023-09-18T11:20:05;6.53;;;4.80;;
76296;SDS011;65104;52.994;6.552;2023-09-18T11:22:47;5.60;;;4.60;;
76296;SDS011;65104;52.994;6.552;2023-09-18T11:28:00;6.20;;;4.43;;
76296;SDS011;65104;52.994;6.552;2023-09-18T11:30:27;5.40;;;4.35;;
76296;SDS011;65104;52.994;6.552;2023-09-18T11:32:53;7.90;;;4.97;;
76296;SDS011;65104;52.994;6.552;2023-09-18T11:35:20;7.88;;;4.43;;
76296;SDS011;65104;52.994;6.552;2023-09-18T11:37:47;7.40;;;4.35;;
76296;SDS011;65104;52.994;6.552;2023-09-18T11:40:28;6.57;;;4.28;;
76296;SDS011;65104;52.994;6.552;2023-09-18T11:45:43;7.38;;;4.38;;
76296;SDS011;65104;52.994;6.552;2023-09-18T11:48:09;5.22;;;4.60;;
76296;SDS011;65104;52.994;6.552;2023-09-18T11:50:37;7.95;;;5.13;;
76296;SDS011;65104;52.994;6.552;2023-09-18T11:53:05;5.38;;;4.65;;
76296;SDS011;65104;52.994;6.552;2023-09-18T11:55:31;6.43;;;5.28;;
76296;SDS011;65104;52.994;6.552;2023-09-18T11:57:58;5.82;;;5.10;;
76296;SDS011;65104;52.994;6.552;2023-09-18T12:00:26;5.65;;;5.00;;
76296;SDS011;65104;52.994;6.552;2023-09-18T12:02:54;5.38;;;4.20;;
76296;SDS011;65104;52.994;6.552;2023-09-18T12:05:20;5.38;;;4.40;;
76296;SDS011;65104;52.994;6.552;2023-09-18T12:07:46;5.53;;;4.30;;
76296;SDS011;65104;52.994;6.552;2023-09-18T12:10:14;5.75;;;4.15;;
76296;SDS011;65104;52.994;6.552;2023-09-18T12:12:42;5.40;;;4.25;;
76296;SDS011;65104;52.994;6.552;2023-09-18T12:15:11;4.88;;;4.13;;
76296;SDS011;65104;52.994;6.552;2023-09-18T12:17:37;4.47;;;4.07;;
76296;SDS011;65104;52.994;6.552;2023-09-18T12:20:03;6.15;;;3.83;;
76296;SDS011;65104;52.994;6.552;2023-09-18T12:22:30;5.10;;;3.83;;
76296;SDS011;65104;52.994;6.552;2023-09-18T12:25:13;5.93;;;3.83;;
76296;SDS011;65104;52.994;6.552;2023-09-18T12:27:42;3.38;;;3.08;;
76296;SDS011;65104;52.994;6.552;2023-09-18T12:30:08;5.72;;;4.10;;
76296;SDS011;65104;52.994;6.552;2023-09-18T12:32:36;4.00;;;3.60;;
76296;SDS011;65104;52.994;6.552;2023-09-18T12:35:02;5.82;;;3.97;;
76296;SDS011;65104;52.994;6.552;2023-09-18T12:37:31;5.57;;;3.83;;
76296;SDS011;65104;52.994;6.552;2023-09-18T12:40:00;4.75;;;3.58;;
76296;SDS011;65104;52.994;6.552;2023-09-18T12:42:26;5.45;;;4.05;;
76296;SDS011;65104;52.994;6.552;2023-09-18T12:44:52;7.10;;;4.38;;
76296;SDS011;65104;52.994;6.552;2023-09-18T12:47:19;4.10;;;3.70;;
76296;SDS011;65104;52.994;6.552;2023-09-18T12:49:45;5.15;;;4.20;;
76296;SDS011;65104;52.994;6.552;2023-09-18T12:52:12;6.20;;;4.00;;
76296;SDS011;65104;52.994;6.552;2023-09-18T12:54:42;4.97;;;3.38;;
76296;SDS011;65104;52.994;6.552;2023-09-18T12:57:18;3.92;;;3.58;;
76296;SDS011;65104;52.994;6.552;2023-09-18T12:59:44;5.25;;;3.40;;
76296;SDS011;65104;52.994;6.552;2023-09-18T13:02:12;3.92;;;3.40;;
76296;SDS011;65104;52.994;6.552;2023-09-18T13:04:38;3.95;;;3.55;;
76296;SDS011;65104;52.994;6.552;2023-09-18T13:07:05;4.13;;;3.55;;
76296;SDS011;65104;52.994;6.552;2023-09-18T13:09:35;3.72;;;3.38;;
76296;SDS011;65104;52.994;6.552;2023-09-18T13:12:00;5.53;;;4.30;;
76296;SDS011;65104;52.994;6.552;2023-09-18T13:14:26;5.50;;;4.60;;
76296;SDS011;65104;52.994;6.552;2023-09-18T13:16:52;5.07;;;4.20;;
76296;SDS011;65104;52.994;6.552;2023-09-18T13:19:17;5.68;;;4.43;;
76296;SDS011;65104;52.994;6.552;2023-09-18T13:21:47;7.45;;;4.63;;
76296;SDS011;65104;52.994;6.552;2023-09-18T13:24:24;6.50;;;4.93;;
76296;SDS011;65104;52.994;6.552;2023-09-18T13:26:56;7.85;;;4.43;;
76296;SDS011;65104;52.994;6.552;2023-09-18T13:29:24;6.85;;;5.07;;
76296;SDS011;65104;52.994;6.552;2023-09-18T13:31:49;5.55;;;4.85;;
76296;SDS011;65104;52.994;6.552;2023-09-18T13:34:16;4.97;;;4.03;;
76296;SDS011;65104;52.994;6.552;2023-09-18T13:36:47;5.78;;;4.13;;
76296;SDS011;65104;52.994;6.552;2023-09-18T13:39:13;5.03;;;3.85;;
76296;SDS011;65104;52.994;6.552;2023-09-18T13:41:40;4.30;;;3.47;;
76296;SDS011;65104;52.994;6.552;2023-09-18T13:44:08;5.78;;;3.58;;
76296;SDS011;65104;52.994;6.552;2023-09-18T13:46:34;4.22;;;3.42;;
76296;SDS011;65104;52.994;6.552;2023-09-18T13:49:02;8.10;;;4.07;;
76296;SDS011;65104;52.994;6.552;2023-09-18T13:51:29;4.50;;;3.35;;
76296;SDS011;65104;52.994;6.552;2023-09-18T13:53:58;5.25;;;3.58;;
76296;SDS011;65104;52.994;6.552;2023-09-18T13:56:23;4.20;;;3.22;;
76296;SDS011;65104;52.994;6.552;2023-09-18T13:58:52;4.03;;;3.40;;
76296;SDS011;65104;52.994;6.552;2023-09-18T14:01:19;5.15;;;3.22;;
76296;SDS011;65104;52.994;6.552;2023-09-18T14:03:45;3.95;;;2.85;;
76296;SDS011;65104;52.994;6.552;2023-09-18T14:06:10;3.92;;;3.10;;
76296;SDS011;65104;52.994;6.552;2023-09-18T14:08:36;4.00;;;2.70;;
76296;SDS011;65104;52.994;6.552;2023-09-18T14:11:03;3.30;;;2.70;;
76296;SDS011;65104;52.994;6.552;2023-09-18T14:13:31;3.80;;;3.17;;
76296;SDS011;65104;52.994;6.552;2023-09-18T14:15:56;4.80;;;3.35;;
76296;SDS011;65104;52.994;6.552;2023-09-18T14:18:22;3.72;;;3.42;;
76296;SDS011;65104;52.994;6.552;2023-09-18T14:20:47;4.15;;;2.97;;
76296;SDS011;65104;52.994;6.552;2023-09-18T14:23:12;6.50;;;3.22;;
76296;SDS011;65104;52.994;6.552;2023-09-18T14:25:38;4.75;;;3.65;;
76296;SDS011;65104;52.994;6.552;2023-09-18T14:28:03;3.92;;;3.60;;
76296;SDS011;65104;52.994;6.552;2023-09-18T14:30:29;4.18;;;3.78;;
76296;SDS011;65104;52.994;6.552;2023-09-18T14:32:56;4.13;;;3.72;;
76296;SDS011;65104;52.994;6.552;2023-09-18T14:35:22;4.57;;;3.40;;
76296;SDS011;65104;52.994;6.552;2023-09-18T14:37:48;3.78;;;3.47;;
76296;SDS011;65104;52.994;6.552;2023-09-18T14:40:14;3.88;;;3.47;;
76296;SDS011;65104;52.994;6.552;2023-09-18T14:42:40;5.15;;;3.60;;
76296;SDS011;65104;52.994;6.552;2023-09-18T14:45:05;7.05;;;3.80;;
76296;SDS011;65104;52.994;6.552;2023-09-18T14:47:31;4.38;;;3.10;;
76296;SDS011;65104;52.994;6.552;2023-09-18T14:49:57;4.18;;;3.13;;
76296;SDS011;65104;52.994;6.552;2023-09-18T14:52:23;4.05;;;2.85;;
76296;SDS011;65104;52.994;6.552;2023-09-18T14:54:50;3.55;;;3.25;;
76296;SDS011;65104;52.994;6.552;2023-09-18T14:57:17;3.00;;;2.55;;
76296;SDS011;65104;52.994;6.552;2023-09-18T14:59:42;4.53;;;2.30;;
76296;SDS011;65104;52.994;6.552;2023-09-18T15:02:12;3.22;;;2.30;;
76296;SDS011;65104;52.994;6.552;2023-09-18T15:04:39;3.20;;;2.90;;